Time;durP1;ratioP1;P1;durP2;ratioP2;P2;SDS_P1;SDS_P2;PMS_P1;PMS_P2;Temp;Humidity;BMP_temperature;BMP_pressure;BME280_temperature;BME280_humidity;BME280_pressure;Samples;Min_cycle;Max_cycle;Signal;HPM_P1;HPM_P2
2023/09/04 00:00:05;;;;;;;8.30;5.60;;;;;;;18.45;64.20;99788.77;107231;1258;61666;-40
2023/09/04 00:02:39;;;;;;;6.90;5.20;;;;;;;18.47;64.45;99792.52;107213;1262;60293;-40
2023/09/04 00:05:07;;;;;;;6.00;5.20;;;;;;;18.53;64.26;99790.62;107219;1258;73859;-41
2023/09/04 00:07:35;;;;;;;8.00;5.90;;;;;;;18.57;64.13;99792.10;107342;1262;66369;-39
2023/09/04 00:10:03;;;;;;;7.00;5.50;;;;;;;18.59;64.13;99787.61;107214;1257;70439;-39
2023/09/04 00:12:32;;;;;;;7.00;5.90;;;;;;;18.59;64.14;99786.98;107246;1262;60549;-39
2023/09/04 00:14:59;;;;;;;8.10;5.60;;;;;;;18.56;63.92;99785.91;107311;1261;60350;-39
2023/09/04 00:17:27;;;;;;;8.10;5.90;;;;;;;18.51;64.26;99787.55;107226;1261;71693;-39
2023/09/04 00:19:55;;;;;;;7.60;5.80;;;;;;;18.48;64.64;99785.39;107263;1262;67570;-39
2023/09/04 00:22:22;;;;;;;7.20;5.60;;;;;;;18.38;64.91;99779.56;107209;1261;72695;-39
2023/09/04 00:24:50;;;;;;;7.50;5.60;;;;;;;18.44;64.92;99788.16;107223;1261;60470;-39
2023/09/04 00:27:19;;;;;;;7.20;5.50;;;;;;;18.45;64.95;99795.21;107192;1257;60556;-39
2023/09/04 00:29:47;;;;;;;9.40;5.70;;;;;;;18.42;65.15;99795.77;107191;1257;75117;-39
2023/09/04 00:32:16;;;;;;;7.50;5.80;;;;;;;18.41;65.20;99797.49;107206;1260;66393;-40
2023/09/04 00:34:44;;;;;;;6.70;5.60;;;;;;;18.41;65.03;99795.54;107104;1261;71486;-40
2023/09/04 00:37:11;;;;;;;8.10;5.90;;;;;;;18.42;65.18;99796.17;107062;1262;60410;-39
2023/09/04 00:39:39;;;;;;;7.50;5.90;;;;;;;18.41;65.14;99797.19;107060;1261;60284;-39
2023/09/04 00:42:07;;;;;;;7.50;6.10;;;;;;;18.39;65.08;99799.49;107099;1257;73913;-39
2023/09/04 00:44:34;;;;;;;9.40;6.20;;;;;;;18.37;65.23;99799.96;107203;1262;66610;-39
2023/09/04 00:47:02;;;;;;;6.20;5.50;;;;;;;18.41;65.16;99801.11;107082;1262;73156;-40
2023/09/04 00:49:30;;;;;;;6.20;5.60;;;;;;;18.46;65.13;99800.21;106925;1261;60432;-40
2023/09/04 00:51:57;;;;;;;10.00;6.00;;;;;;;18.45;64.96;99800.69;107227;1257;60317;-40
2023/09/04 00:54:25;;;;;;;5.80;5.00;;;;;;;18.44;65.00;99800.70;107253;1257;73899;-40
2023/09/04 00:56:53;;;;;;;6.80;5.80;;;;;;;18.44;65.11;99801.02;107114;1262;65439;-40
2023/09/04 00:59:23;;;;;;;7.10;6.30;;;;;;;18.42;65.05;99794.84;107087;1262;72644;-40
2023/09/04 01:01:51;;;;;;;8.40;6.40;;;;;;;18.39;65.14;99800.19;107106;1260;61135;-40
2023/09/04 01:04:20;;;;;;;8.90;6.10;;;;;;;18.35;65.26;99797.46;107037;1257;60500;-40
2023/09/04 01:06:47;;;;;;;9.00;6.00;;;;;;;18.30;65.51;99797.88;107080;1262;73012;-40
2023/09/04 01:09:16;;;;;;;7.70;5.40;;;;;;;18.29;65.55;99804.16;107237;1263;67895;-40
2023/09/04 01:11:51;;;;;;;10.00;6.30;;;;;;;18.32;65.74;99807.12;107083;1257;72680;-39
2023/09/04 01:14:19;;;;;;;9.60;6.10;;;;;;;18.33;65.77;99808.22;107071;1262;59544;-39
2023/09/04 01:16:47;;;;;;;10.10;5.90;;;;;;;18.32;65.75;99802.81;107100;1257;60460;-39
2023/09/04 01:19:17;;;;;;;7.50;6.40;;;;;;;18.30;65.91;99807.91;107004;1257;73886;-39
2023/09/04 01:21:45;;;;;;;9.40;6.90;;;;;;;18.29;65.89;99803.06;107121;1257;67578;-40
2023/09/04 01:24:12;;;;;;;9.80;6.60;;;;;;;18.25;66.08;99800.73;107006;1263;73052;-40
2023/09/04 01:26:42;;;;;;;12.00;6.60;;;;;;;18.23;66.17;99806.00;107219;1258;60460;-40
2023/09/04 01:29:39;;;;;;;6.70;6.10;;;;;;;18.25;66.19;99806.85;107201;1262;60444;-40
2023/09/04 01:32:07;;;;;;;7.40;5.90;;;;;;;18.29;66.12;99808.48;107053;1257;73872;-40
2023/09/04 01:34:38;;;;;;;11.30;6.40;;;;;;;18.28;66.09;99806.45;107123;1262;67597;-40
2023/09/04 01:37:05;;;;;;;7.60;6.20;;;;;;;18.27;66.12;99808.95;107129;1262;72666;-40
2023/09/04 01:39:33;;;;;;;7.10;6.10;;;;;;;18.25;66.18;99808.26;107038;1263;60572;-40
2023/09/04 01:42:00;;;;;;;9.90;6.50;;;;;;;18.22;66.32;99806.86;107054;1257;60618;-40
2023/09/04 01:44:29;;;;;;;8.70;6.20;;;;;;;18.19;66.34;99807.91;107110;1262;71711;-40
2023/09/04 01:46:56;;;;;;;8.90;6.40;;;;;;;18.18;66.60;99809.08;107141;1262;67906;-40
2023/09/04 01:49:24;;;;;;;6.60;5.50;;;;;;;18.19;66.40;99813.77;107185;1257;72745;-40
2023/09/04 01:51:53;;;;;;;8.60;6.00;;;;;;;18.23;66.32;99809.37;107085;1261;60444;-40
2023/09/04 01:54:21;;;;;;;8.10;6.30;;;;;;;18.24;66.30;99808.73;107096;1256;60650;-40
2023/09/04 01:56:49;;;;;;;7.20;6.10;;;;;;;18.20;66.38;99810.48;107131;1257;72593;-40
2023/09/04 01:59:17;;;;;;;8.80;6.30;;;;;;;18.16;66.55;99813.32;107060;1263;67152;-40
2023/09/04 02:01:44;;;;;;;7.80;6.70;;;;;;;18.13;66.57;99811.61;107069;1258;71804;-40
2023/09/04 02:04:12;;;;;;;9.40;6.40;;;;;;;18.08;66.61;99809.27;107241;1257;60407;-40
2023/09/04 02:06:40;;;;;;;7.90;6.40;;;;;;;18.03;67.05;99814.31;107243;1256;60466;-40
2023/09/04 02:09:07;;;;;;;10.10;6.20;;;;;;;18.04;67.31;99815.19;107206;1260;73938;-40
2023/09/04 02:11:35;;;;;;;8.10;6.20;;;;;;;18.07;67.41;99814.69;107223;1261;66312;-40
2023/09/04 02:14:02;;;;;;;9.30;6.20;;;;;;;18.08;67.47;99817.36;107217;1260;72670;-41
2023/09/04 02:16:30;;;;;;;10.80;6.50;;;;;;;18.05;67.49;99813.38;107226;1257;60398;-39
2023/09/04 02:18:58;;;;;;;7.70;6.60;;;;;;;18.01;67.56;99812.67;107144;1256;60344;-40
2023/09/04 02:21:25;;;;;;;9.60;6.60;;;;;;;17.96;67.53;99814.82;107216;1261;73679;-40
2023/09/04 02:23:53;;;;;;;8.90;6.80;;;;;;;17.88;67.83;99817.59;107276;1257;70203;-40
2023/09/04 02:26:20;;;;;;;9.70;6.70;;;;;;;17.86;67.91;99817.36;107244;1260;72644;-40
2023/09/04 02:28:50;;;;;;;9.90;6.80;;;;;;;17.87;68.00;99819.62;107160;1257;60559;-40
2023/09/04 02:31:17;;;;;;;9.90;6.80;;;;;;;17.84;68.16;99820.51;107185;1257;60367;-40
2023/09/04 02:33:45;;;;;;;9.30;6.90;;;;;;;17.79;68.24;99817.22;107258;1260;73801;-40
2023/09/04 02:36:13;;;;;;;11.00;7.50;;;;;;;17.76;68.45;99817.17;107246;1257;67741;-40
2023/09/04 02:38:41;;;;;;;8.70;7.10;;;;;;;17.73;68.41;99814.19;107205;1256;72634;-40
2023/09/04 02:41:09;;;;;;;9.00;6.80;;;;;;;17.70;68.38;99818.11;107206;1257;60565;-40
2023/09/04 02:43:36;;;;;;;12.70;6.50;;;;;;;17.66;68.42;99817.73;107218;1258;59295;-40
2023/09/04 02:46:04;;;;;;;8.20;6.60;;;;;;;17.65;68.63;99822.75;107223;1257;73819;-40
2023/09/04 02:48:32;;;;;;;10.10;7.30;;;;;;;17.63;68.79;99826.59;107229;1258;67741;-40
2023/09/04 02:50:59;;;;;;;7.90;7.00;;;;;;;17.60;68.91;99823.70;107254;1260;71666;-40
2023/09/04 02:53:27;;;;;;;8.70;7.30;;;;;;;17.54;69.08;99824.85;107067;1261;60319;-40
2023/09/04 02:55:54;;;;;;;7.80;6.80;;;;;;;17.51;69.21;99830.20;107212;1256;60552;-39
2023/09/04 02:58:22;;;;;;;9.60;7.30;;;;;;;17.49;69.26;99829.95;107218;1257;72666;-39
2023/09/04 03:00:50;;;;;;;8.00;6.60;;;;;;;17.50;69.36;99832.85;107239;1257;67959;-39
2023/09/04 03:03:20;;;;;;;8.90;7.30;;;;;;;17.48;69.46;99831.67;107197;1257;72650;-39
2023/09/04 03:05:48;;;;;;;8.80;7.20;;;;;;;17.43;69.66;99833.80;107189;1257;60486;-40
2023/09/04 03:08:16;;;;;;;10.10;6.70;;;;;;;17.38;69.77;99834.67;107217;1260;60312;-40
2023/09/04 03:10:44;;;;;;;9.60;6.70;;;;;;;17.34;69.93;99835.14;107212;1257;73877;-40
2023/09/04 03:13:12;;;;;;;9.90;6.60;;;;;;;17.34;70.06;99838.81;107264;1257;65469;-40
2023/09/04 03:15:39;;;;;;;10.30;6.60;;;;;;;17.36;70.03;99843.13;107228;1257;71453;-40
2023/09/04 03:18:09;;;;;;;8.50;6.70;;;;;;;17.35;70.19;99840.38;107220;1257;60342;-39
2023/09/04 03:20:37;;;;;;;12.80;7.20;;;;;;;17.33;70.32;99838.36;107075;1263;59252;-39
2023/09/04 03:23:04;;;;;;;9.60;6.70;;;;;;;17.33;70.33;99838.59;107064;1257;73909;-39
2023/09/04 03:25:33;;;;;;;9.40;6.50;;;;;;;17.30;70.46;99839.84;107219;1257;66511;-39
2023/09/04 03:28:01;;;;;;;9.70;6.30;;;;;;;17.30;70.45;99834.52;107178;1257;71195;-40
2023/09/04 03:30:29;;;;;;;12.70;7.20;;;;;;;17.35;70.51;99836.95;107312;1256;60442;-40
2023/09/04 03:32:58;;;;;;;10.40;7.10;;;;;;;17.37;70.48;99834.68;107211;1256;60221;-40
2023/09/04 03:35:26;;;;;;;9.80;7.00;;;;;;;17.35;70.48;99834.13;107214;1257;73879;-40
2023/09/04 03:37:54;;;;;;;7.60;6.50;;;;;;;17.34;70.48;99837.88;107237;1257;66929;-40
2023/09/04 03:40:23;;;;;;;8.60;6.50;;;;;;;17.32;70.46;99836.40;107258;1257;71071;-40
2023/09/04 03:42:52;;;;;;;7.40;6.40;;;;;;;17.34;70.54;99841.25;107213;1257;60927;-40
2023/09/04 03:45:19;;;;;;;7.50;6.50;;;;;;;17.35;70.42;99835.69;107215;1257;60325;-40
2023/09/04 03:47:47;;;;;;;8.20;6.70;;;;;;;17.32;70.66;99837.90;107156;1257;73833;-39
2023/09/04 03:50:15;;;;;;;8.50;6.40;;;;;;;17.31;70.78;99833.35;107253;1258;66701;-40
2023/09/04 03:52:43;;;;;;;7.50;6.50;;;;;;;17.28;70.80;99838.29;107200;1257;71817;-40
2023/09/04 03:55:11;;;;;;;8.60;6.00;;;;;;;17.28;70.97;99835.23;107178;1262;59447;-40
2023/09/04 03:57:42;;;;;;;7.80;6.10;;;;;;;17.33;70.76;99835.62;107236;1257;60348;-40
2023/09/04 04:00:16;;;;;;;8.00;6.10;;;;;;;17.37;70.73;99839.52;107085;1256;73876;-40
2023/09/04 04:02:47;;;;;;;9.80;6.60;;;;;;;17.40;70.87;99839.99;107075;1257;67544;-40
2023/09/04 04:05:16;;;;;;;11.70;7.00;;;;;;;17.41;70.88;99842.35;107169;1256;72657;-40
2023/09/04 04:07:44;;;;;;;10.20;6.40;;;;;;;17.44;70.75;99846.26;107196;1257;60081;-40
2023/09/04 04:10:11;;;;;;;10.10;6.60;;;;;;;17.46;70.92;99848.36;107202;1257;60430;-40
2023/09/04 04:12:39;;;;;;;9.00;6.10;;;;;;;17.52;70.65;99847.66;107191;1258;73936;-40
2023/09/04 04:15:08;;;;;;;8.90;6.20;;;;;;;17.56;70.52;99848.27;107194;1260;67891;-40
2023/09/04 04:17:36;;;;;;;8.30;6.50;;;;;;;17.57;70.53;99848.89;107255;1256;71450;-40
2023/09/04 04:20:12;;;;;;;8.60;6.10;;;;;;;17.57;70.59;99851.23;107185;1257;60428;-40
2023/09/04 04:22:40;;;;;;;11.40;7.20;;;;;;;17.56;70.63;99851.95;107188;1256;60496;-39
2023/09/04 04:25:09;;;;;;;9.50;6.80;;;;;;;17.56;70.66;99852.27;107178;1257;73880;-39
2023/09/04 04:27:38;;;;;;;9.20;6.50;;;;;;;17.60;70.58;99854.00;107265;1257;66311;-39
2023/09/04 04:30:08;;;;;;;10.00;7.00;;;;;;;17.64;70.59;99853.70;107213;1257;72692;-40
2023/09/04 04:32:37;;;;;;;9.80;6.70;;;;;;;17.65;70.74;99853.77;107212;1257;60440;-40
2023/09/04 04:35:07;;;;;;;8.80;6.60;;;;;;;17.59;70.67;99845.24;107200;1257;60271;-40
2023/09/04 04:37:36;;;;;;;8.20;6.90;;;;;;;17.67;70.75;99854.47;107193;1256;72716;-40
2023/09/04 04:40:06;;;;;;;9.30;6.70;;;;;;;17.69;70.71;99857.29;107198;1256;67234;-40
2023/09/04 04:42:35;;;;;;;8.50;6.40;;;;;;;17.73;70.62;99854.85;107195;1257;72697;-40
2023/09/04 04:45:05;;;;;;;8.20;6.90;;;;;;;17.78;70.63;99855.63;107116;1256;60582;-39
2023/09/04 04:47:33;;;;;;;10.50;6.50;;;;;;;17.80;70.70;99855.62;107306;1256;60431;-40
2023/09/04 04:50:01;;;;;;;7.90;6.30;;;;;;;17.80;70.57;99860.39;107192;1258;72757;-40
2023/09/04 04:52:29;;;;;;;9.80;6.80;;;;;;;17.79;70.57;99861.11;107205;1258;66298;-40
2023/09/04 04:54:56;;;;;;;8.70;6.50;;;;;;;17.79;70.73;99862.36;107221;1260;73144;-39
2023/09/04 04:57:24;;;;;;;8.50;6.00;;;;;;;17.82;70.41;99863.05;107091;1256;59618;-40
2023/09/04 04:59:52;;;;;;;10.80;6.60;;;;;;;17.87;70.62;99864.70;107229;1256;60464;-40
2023/09/04 05:02:21;;;;;;;10.40;6.90;;;;;;;17.90;70.74;99867.59;107239;1256;72592;-40
2023/09/04 05:04:49;;;;;;;8.60;5.90;;;;;;;17.91;70.71;99869.85;107300;1256;66626;-40
2023/09/04 05:07:18;;;;;;;9.80;6.60;;;;;;;17.94;70.65;99874.86;107127;1259;72908;-40
2023/09/04 05:09:51;;;;;;;8.60;6.80;;;;;;;17.98;70.56;99878.23;107188;1256;60572;-40
2023/09/04 05:12:20;;;;;;;9.70;6.10;;;;;;;18.06;70.52;99880.86;107191;1262;60393;-40
2023/09/04 05:14:48;;;;;;;8.70;6.50;;;;;;;18.14;70.46;99879.42;107205;1256;72967;-40
2023/09/04 05:17:16;;;;;;;7.80;6.20;;;;;;;18.20;70.30;99881.69;107198;1256;67114;-40
2023/09/04 05:19:46;;;;;;;8.20;5.60;;;;;;;18.24;69.92;99886.36;107253;1257;71410;-40
2023/09/04 05:22:14;;;;;;;9.00;6.40;;;;;;;18.26;69.89;99889.33;107255;1257;60488;-41
2023/09/04 05:24:43;;;;;;;11.40;6.60;;;;;;;18.22;69.98;99876.58;107199;1256;60335;-41
2023/09/04 05:27:10;;;;;;;7.90;5.50;;;;;;;18.36;69.90;99891.18;107141;1256;72594;-39
2023/09/04 05:29:38;;;;;;;8.00;6.00;;;;;;;18.46;69.93;99890.04;107237;1257;67914;-39
2023/09/04 05:32:06;;;;;;;8.30;6.10;;;;;;;18.54;69.51;99888.14;107193;1257;72461;-39
2023/09/04 05:34:34;;;;;;;10.50;6.60;;;;;;;18.60;69.30;99892.20;107182;1257;60335;-39
2023/09/04 05:37:02;;;;;;;9.40;6.40;;;;;;;18.65;68.97;99894.14;107259;1256;60526;-39
2023/09/04 05:39:30;;;;;;;7.50;6.00;;;;;;;18.68;68.89;99892.15;107191;1256;72609;-40
2023/09/04 05:41:57;;;;;;;10.00;6.10;;;;;;;18.80;68.72;99890.59;107199;1260;67652;-40
2023/09/04 05:44:25;;;;;;;8.40;6.00;;;;;;;18.93;68.43;99890.75;107195;1260;71382;-40
2023/09/04 05:46:53;;;;;;;8.00;6.10;;;;;;;19.01;67.92;99892.19;107183;1257;60451;-40
2023/09/04 05:49:20;;;;;;;11.00;6.00;;;;;;;19.03;67.52;99893.11;107226;1256;60630;-40
2023/09/04 05:51:48;;;;;;;8.30;6.50;;;;;;;19.09;67.49;99894.95;107236;1256;73994;-40
2023/09/04 05:54:16;;;;;;;9.70;6.30;;;;;;;19.17;67.40;99897.40;107214;1256;67578;-40
2023/09/04 05:56:43;;;;;;;7.60;5.70;;;;;;;19.26;66.85;99896.58;107189;1257;72665;-40
2023/09/04 05:59:13;;;;;;;8.90;5.70;;;;;;;19.35;66.19;99894.68;107216;1257;60422;-40
2023/09/04 06:01:40;;;;;;;7.70;5.80;;;;;;;19.44;65.99;99899.80;107211;1256;61093;-40
2023/09/04 06:04:08;;;;;;;8.20;5.90;;;;;;;19.54;65.79;99901.46;107273;1256;74100;-40
2023/09/04 06:06:38;;;;;;;9.10;6.10;;;;;;;19.64;65.19;99899.88;107264;1256;66643;-40
2023/09/04 06:09:07;;;;;;;9.80;6.10;;;;;;;19.74;64.61;99903.23;107182;1257;72668;-40
2023/09/04 06:11:35;;;;;;;8.30;5.70;;;;;;;19.82;63.95;99902.69;107235;1257;60364;-40
2023/09/04 06:14:03;;;;;;;6.60;5.80;;;;;;;19.92;63.58;99908.57;107255;1256;60359;-40
2023/09/04 06:16:33;;;;;;;9.60;6.10;;;;;;;19.99;63.64;99908.65;107201;1256;71323;-40
2023/09/04 06:19:00;;;;;;;7.30;5.50;;;;;;;20.06;63.08;99910.15;107262;1256;66843;-40
2023/09/04 06:21:28;;;;;;;8.60;6.20;;;;;;;20.13;62.24;99911.95;107173;1256;73178;-39
2023/09/04 06:23:56;;;;;;;7.90;5.40;;;;;;;20.17;61.94;99910.90;107182;1257;61132;-40
2023/09/04 06:26:23;;;;;;;7.00;5.50;;;;;;;20.19;61.73;99910.86;107167;1256;60388;-40
2023/09/04 06:28:51;;;;;;;8.60;5.60;;;;;;;20.26;61.58;99913.38;107231;1256;73914;-40
2023/09/04 06:31:19;;;;;;;7.20;5.70;;;;;;;20.32;61.52;99918.60;107195;1257;67563;-39
2023/09/04 06:33:47;;;;;;;7.40;5.60;;;;;;;20.41;61.33;99918.52;107129;1258;72737;-40
2023/09/04 06:36:15;;;;;;;7.20;5.10;;;;;;;20.48;61.17;99917.00;107209;1256;60747;-40
2023/09/04 06:38:43;;;;;;;8.60;5.50;;;;;;;20.57;60.56;99921.45;107219;1255;60059;-40
2023/09/04 06:41:10;;;;;;;7.10;5.50;;;;;;;20.66;59.93;99925.50;107218;1258;73869;-40
2023/09/04 06:43:38;;;;;;;8.00;5.40;;;;;;;20.74;59.28;99925.64;107233;1256;65306;-40
2023/09/04 06:46:06;;;;;;;7.40;5.40;;;;;;;20.79;59.45;99926.20;107236;1256;72680;-40
2023/09/04 06:48:34;;;;;;;7.50;5.30;;;;;;;20.83;59.01;99931.27;107211;1260;60413;-40
2023/09/04 06:51:02;;;;;;;7.70;5.40;;;;;;;20.87;59.30;99933.96;107292;1256;60310;-39
2023/09/04 06:53:31;;;;;;;7.70;5.30;;;;;;;20.92;59.32;99937.77;107235;1257;74312;-40
2023/09/04 06:55:59;;;;;;;8.80;5.30;;;;;;;20.98;58.93;99940.83;107224;1259;67623;-40
2023/09/04 06:58:26;;;;;;;13.20;10.20;;;;;;;21.06;59.38;99944.25;107214;1256;71696;-40
2023/09/04 07:00:54;;;;;;;14.80;12.20;;;;;;;21.15;59.07;99944.30;107243;1256;60335;-40
2023/09/04 07:03:22;;;;;;;19.10;14.90;;;;;;;21.25;58.64;99946.67;107251;1256;60332;-40
2023/09/04 07:05:50;;;;;;;7.70;5.70;;;;;;;21.34;58.35;99949.85;107224;1256;73912;-40
2023/09/04 07:08:18;;;;;;;7.80;5.20;;;;;;;21.42;58.00;99947.90;107074;1257;66785;-40
2023/09/04 07:10:49;;;;;;;7.80;5.20;;;;;;;21.50;57.10;99947.54;107219;1260;71431;-40
2023/09/04 07:13:18;;;;;;;6.80;4.40;;;;;;;21.57;56.55;99944.59;107228;1260;60560;-40
2023/09/04 07:15:46;;;;;;;6.10;4.60;;;;;;;21.65;55.21;99945.17;107254;1256;60437;-40
2023/09/04 07:18:14;;;;;;;5.30;4.20;;;;;;;21.74;54.51;99948.65;107309;1256;74349;-40
2023/09/04 07:20:42;;;;;;;5.40;4.00;;;;;;;21.84;54.05;99942.73;107239;1256;67887;-40
2023/09/04 07:23:09;;;;;;;6.00;4.10;;;;;;;21.93;53.77;99943.59;107209;1258;72762;-40
2023/09/04 07:25:52;;;;;;;7.80;4.20;;;;;;;22.02;52.92;99949.27;107204;1256;60502;-40
2023/09/04 07:28:20;;;;;;;6.60;4.00;;;;;;;22.10;53.38;99952.04;107247;1256;60395;-40
2023/09/04 07:30:47;;;;;;;15.30;13.60;;;;;;;22.19;52.47;99955.52;107222;1256;73917;-40
2023/09/04 07:33:15;;;;;;;30.30;24.00;;;;;;;22.30;52.30;99958.07;107208;1260;68036;-40
2023/09/04 07:35:42;;;;;;;18.60;13.30;;;;;;;22.42;52.62;99960.82;107184;1256;72697;-40
2023/09/04 07:38:10;;;;;;;5.80;4.60;;;;;;;22.55;52.47;99959.86;107211;1256;60562;-40
2023/09/04 07:40:37;;;;;;;6.50;4.30;;;;;;;22.68;51.77;99962.61;107256;1256;60454;-40
2023/09/04 07:43:06;;;;;;;6.60;4.30;;;;;;;22.78;50.71;99962.01;107235;1256;73902;-40
2023/09/04 07:45:34;;;;;;;7.80;4.00;;;;;;;22.87;50.11;99960.16;107274;1256;67575;-40
2023/09/04 07:48:02;;;;;;;4.50;3.70;;;;;;;22.97;50.05;99958.69;107205;1257;71395;-40
2023/09/04 07:50:30;;;;;;;5.40;4.10;;;;;;;23.06;49.48;99960.45;107320;1256;59723;-40
2023/09/04 07:52:57;;;;;;;4.90;3.80;;;;;;;23.14;49.47;99958.46;107199;1256;60355;-40
2023/09/04 07:55:25;;;;;;;6.00;4.00;;;;;;;23.21;48.85;99953.39;107213;1260;74303;-41
2023/09/04 07:57:52;;;;;;;5.90;3.80;;;;;;;23.25;48.20;99959.77;107228;1256;67894;-40
2023/09/04 08:00:21;;;;;;;10.40;4.40;;;;;;;23.26;48.08;99966.55;107206;1257;71780;-41
2023/09/04 08:02:50;;;;;;;11.60;4.30;;;;;;;23.28;48.45;99968.88;107240;1256;60500;-40
2023/09/04 08:07:56;;;;;;;33.20;21.10;;;;;;;23.36;48.04;99967.74;104242;1292;599649;-39
2023/09/04 08:10:24;;;;;;;14.80;6.90;;;;;;;23.47;47.33;99971.30;106582;1267;60051;-39
2023/09/04 08:12:52;;;;;;;11.70;4.20;;;;;;;23.57;46.30;99969.95;106637;1267;59603;-39
2023/09/04 08:15:19;;;;;;;7.00;5.10;;;;;;;23.63;45.92;99971.30;106678;1266;72249;-40
2023/09/04 08:17:48;;;;;;;7.00;3.90;;;;;;;23.70;45.84;99971.14;106741;1267;69155;-39
2023/09/04 08:20:16;;;;;;;4.30;3.10;;;;;;;23.77;45.03;99970.73;106693;1267;73393;-40
2023/09/04 08:22:43;;;;;;;6.00;3.80;;;;;;;23.85;45.31;99966.95;106584;1263;214136;-40
2023/09/04 08:25:11;;;;;;;5.60;3.50;;;;;;;23.95;44.76;99968.29;106791;1269;59234;-39
2023/09/04 08:27:39;;;;;;;6.90;3.70;;;;;;;24.03;43.78;99965.07;106813;1263;72241;-40
2023/09/04 08:30:07;;;;;;;5.80;3.40;;;;;;;24.09;44.27;99962.14;106855;1264;67643;-40
2023/09/04 08:32:35;;;;;;;42.00;28.70;;;;;;;24.15;44.56;99965.23;106812;1266;73157;-40
2023/09/04 08:35:04;;;;;;;7.50;5.30;;;;;;;24.17;44.34;99961.31;106799;1264;60071;-40
2023/09/04 08:37:31;;;;;;;18.80;10.40;;;;;;;24.19;43.93;99960.62;106815;1263;59219;-40
2023/09/04 08:39:59;;;;;;;8.20;5.80;;;;;;;24.23;44.63;99961.64;106762;1264;73094;-40
2023/09/04 08:42:27;;;;;;;3.90;3.40;;;;;;;24.27;44.64;99965.57;106777;1264;67564;-40
2023/09/04 08:44:58;;;;;;;5.90;3.60;;;;;;;24.28;43.91;99965.62;106819;1269;72953;-40
2023/09/04 08:47:26;;;;;;;9.40;3.30;;;;;;;24.26;44.55;99969.77;106815;1264;60071;-40
2023/09/04 08:49:53;;;;;;;5.70;2.80;;;;;;;24.22;42.44;99970.91;106836;1263;60011;-40
2023/09/04 08:52:24;;;;;;;6.60;3.30;;;;;;;24.18;42.53;99971.19;106790;1264;71753;-40
2023/09/04 08:54:52;;;;;;;4.60;2.80;;;;;;;24.16;42.88;99974.30;106818;1264;68009;-40
2023/09/04 08:57:19;;;;;;;6.10;3.40;;;;;;;24.16;43.00;99968.67;106791;1263;72645;-40
2023/09/04 08:59:47;;;;;;;5.10;3.30;;;;;;;24.18;42.86;99969.05;106766;1265;60206;-40
2023/09/04 09:02:15;;;;;;;5.30;3.50;;;;;;;24.17;43.05;99967.80;106803;1264;60048;-40
2023/09/04 09:04:43;;;;;;;6.20;2.90;;;;;;;24.14;43.20;99974.27;106895;1269;73184;-40
2023/09/04 09:07:11;;;;;;;4.60;2.80;;;;;;;24.12;42.55;99971.80;106810;1263;67335;-41
2023/09/04 09:09:39;;;;;;;5.40;2.90;;;;;;;24.08;42.17;99975.73;106800;1267;72705;-41
2023/09/04 09:12:07;;;;;;;4.20;3.10;;;;;;;24.04;41.98;99976.21;106859;1269;61061;-40
2023/09/04 09:14:34;;;;;;;5.40;3.10;;;;;;;24.01;42.31;99976.62;106832;1264;59845;-40
2023/09/04 09:17:06;;;;;;;8.30;3.30;;;;;;;24.00;42.67;99980.59;106811;1268;73061;-41
2023/09/04 09:19:34;;;;;;;4.30;3.00;;;;;;;24.03;43.25;99986.66;106866;1264;69754;-41
2023/09/04 09:22:15;;;;;;;5.80;3.40;;;;;;;24.08;43.58;99984.19;106859;1268;72673;-41
2023/09/04 09:24:53;;;;;;;12.60;11.30;;;;;;;24.14;42.97;99983.71;106860;1265;59313;-40
2023/09/04 09:27:31;;;;;;;5.40;3.50;;;;;;;24.19;42.53;99986.20;106821;1264;59199;-41
2023/09/04 09:30:00;;;;;;;5.30;3.70;;;;;;;24.25;41.99;99988.33;106803;1263;73041;-41
2023/09/04 09:32:29;;;;;;;5.90;3.00;;;;;;;24.28;42.15;99992.31;106864;1263;66670;-41
2023/09/04 09:34:58;;;;;;;4.70;3.10;;;;;;;24.33;42.20;99991.76;106812;1264;72700;-40
2023/09/04 09:37:30;;;;;;;3.00;2.50;;;;;;;24.38;42.00;99990.83;106804;1269;59620;-41
2023/09/04 09:39:58;;;;;;;4.00;2.90;;;;;;;24.43;41.45;99989.29;106805;1263;59662;-41
2023/09/04 09:42:26;;;;;;;6.60;3.20;;;;;;;24.43;40.58;99995.38;106835;1263;72881;-41
2023/09/04 09:44:53;;;;;;;4.70;2.80;;;;;;;24.39;40.40;99995.23;106809;1269;67697;-40
2023/09/04 09:47:21;;;;;;;7.20;3.20;;;;;;;24.34;40.74;99990.00;106791;1269;72714;-40
2023/09/04 09:49:49;;;;;;;5.80;2.90;;;;;;;24.30;40.55;99990.11;106827;1266;60078;-41
2023/09/04 09:52:17;;;;;;;6.40;4.80;;;;;;;24.26;40.71;99992.20;106812;1264;59693;-41
2023/09/04 09:54:46;;;;;;;7.30;3.30;;;;;;;24.23;40.97;99993.14;106841;1264;72150;-40
2023/09/04 09:57:15;;;;;;;4.30;3.10;;;;;;;24.22;40.20;99989.77;106817;1264;69834;-40
2023/09/04 09:59:44;;;;;;;4.10;3.40;;;;;;;24.17;40.64;99988.38;106844;1264;72700;-40
2023/09/04 10:02:19;;;;;;;8.00;3.00;;;;;;;24.18;40.89;99992.02;106772;1264;60209;-40
2023/09/04 10:04:47;;;;;;;4.40;3.00;;;;;;;24.21;41.24;99990.12;106804;1263;59632;-40
2023/09/04 10:07:17;;;;;;;5.40;3.10;;;;;;;24.28;41.09;99990.41;106778;1263;75245;-40
2023/09/04 10:09:46;;;;;;;6.80;3.00;;;;;;;24.34;41.25;99994.42;106850;1268;70181;-41
2023/09/04 10:12:28;;;;;;;4.00;2.70;;;;;;;24.40;40.98;99998.79;106798;1264;72819;-41
2023/09/04 10:14:56;;;;;;;7.00;3.00;;;;;;;24.44;41.11;99997.39;106844;1264;60073;-41
2023/09/04 10:17:37;;;;;;;5.80;3.10;;;;;;;24.50;41.19;99996.75;106877;1263;60015;-41
2023/09/04 10:20:06;;;;;;;4.90;3.40;;;;;;;24.60;41.47;100004.65;106801;1264;71698;-41
2023/09/04 10:22:36;;;;;;;5.30;3.10;;;;;;;24.68;41.17;100001.53;106854;1264;67621;-41
2023/09/04 10:25:49;;;;;;;6.50;3.10;;;;;;;24.74;41.54;100004.16;106832;1264;72702;-41
2023/09/04 10:28:48;;;;;;;8.20;4.90;;;;;;;24.84;40.99;100005.30;106652;1269;60477;-41
2023/09/04 10:31:16;;;;;;;5.60;4.20;;;;;;;24.94;41.02;100010.34;107110;1262;60125;-41
2023/09/04 10:33:44;;;;;;;5.30;2.60;;;;;;;25.03;39.93;100008.10;107271;1261;71728;-41
2023/09/04 10:36:12;;;;;;;6.40;2.90;;;;;;;25.10;39.22;100004.09;107311;1260;68347;-41
2023/09/04 10:38:39;;;;;;;5.60;3.00;;;;;;;25.16;39.10;99999.85;107080;1258;72839;-41
2023/09/04 10:41:11;;;;;;;6.70;2.90;;;;;;;25.27;38.98;100003.16;107251;1257;60190;-41
2023/09/04 10:43:39;;;;;;;4.30;3.00;;;;;;;25.39;38.12;99997.16;107276;1257;62033;-41
2023/09/04 10:46:08;;;;;;;3.70;2.40;;;;;;;25.53;37.96;99994.89;107311;1262;71918;-41
2023/09/04 10:48:46;;;;;;;4.20;2.90;;;;;;;25.73;38.27;100000.53;107294;1258;66899;-41
2023/09/04 10:51:36;;;;;;;5.20;3.00;;;;;;;26.00;37.89;99995.98;107300;1260;71520;-41
2023/09/04 10:54:07;;;;;;;6.80;3.30;;;;;;;26.32;38.02;99995.83;107305;1263;60231;-41
2023/09/04 10:57:05;;;;;;;5.00;3.10;;;;;;;26.65;36.97;99985.91;107087;1263;62191;-41
2023/09/04 10:59:55;;;;;;;6.00;3.00;;;;;;;27.01;36.26;99985.69;107022;1258;73894;-42
2023/09/04 11:02:31;;;;;;;6.20;3.10;;;;;;;27.30;36.81;99988.45;107069;1260;67602;-41
2023/09/04 11:05:00;;;;;;;7.90;3.50;;;;;;;27.48;36.35;99989.42;107082;1261;72689;-41
2023/09/04 11:07:34;;;;;;;4.60;3.30;;;;;;;27.52;36.46;99993.26;107094;1258;59735;-41
2023/09/04 11:10:04;;;;;;;5.00;3.10;;;;;;;27.53;36.51;99999.52;107024;1257;59693;-40
2023/09/04 11:12:36;;;;;;;5.30;3.20;;;;;;;27.46;36.34;99999.03;107022;1263;71847;-41
2023/09/04 11:15:11;;;;;;;5.80;3.40;;;;;;;27.40;36.53;99999.91;107097;1257;67102;-41
2023/09/04 11:17:40;;;;;;;4.20;3.10;;;;;;;27.48;36.77;99992.42;107086;1259;71443;-41
2023/09/04 11:20:09;;;;;;;14.30;9.00;;;;;;;27.68;35.83;99993.36;107073;1260;62304;-41
2023/09/04 11:22:37;;;;;;;6.10;4.40;;;;;;;27.88;35.68;99980.38;107109;1259;62047;-41
2023/09/04 11:25:05;;;;;;;4.60;3.50;;;;;;;27.98;35.54;99989.48;107046;1264;73056;-41
2023/09/04 11:27:33;;;;;;;6.80;3.30;;;;;;;28.10;35.29;99988.20;107075;1259;68527;-41
2023/09/04 11:30:01;;;;;;;7.00;3.50;;;;;;;28.23;34.73;99986.06;107036;1261;73147;-41
2023/09/04 11:32:29;;;;;;;4.60;3.40;;;;;;;28.34;34.59;99988.45;107061;1263;60125;-41
2023/09/04 11:34:57;;;;;;;4.40;2.90;;;;;;;28.39;34.19;99985.98;107043;1263;60058;-41